Time;durP1;ratioP1;P1;durP2;ratioP2;P2;SDS_P1;SDS_P2;PMS_P1;PMS_P2;Temp;Humidity;BMP_temperature;BMP_pressure;BME280_temperature;BME280_humidity;BME280_pressure;Samples;Min_cycle;Max_cycle;Signal;HPM_P1;HPM_P2
2023/03/11 00:00:43;;;;;;;0.80;0.80;;;;;;;13.99;100.00;98249.84;5090359;28;20197;-76
2023/03/11 00:03:12;;;;;;;0.70;0.70;;;;;;;14.24;100.00;98263.91;5091100;28;20212;-75
2023/03/11 00:05:41;;;;;;;0.80;0.80;;;;;;;14.11;100.00;98225.22;5055018;28;20190;-74
2023/03/11 00:08:13;;;;;;;0.60;0.60;;;;;;;14.35;100.00;98238.41;5090588;28;20195;-75
2023/03/11 00:10:41;;;;;;;0.60;0.60;;;;;;;14.26;100.00;98235.19;5090832;28;20567;-75
2023/03/11 00:13:10;;;;;;;0.70;0.70;;;;;;;14.22;100.00;98244.84;5090758;28;20229;-75
2023/03/11 00:15:38;;;;;;;0.70;0.70;;;;;;;14.05;100.00;98230.59;5091007;28;20205;-75
2023/03/11 00:18:06;;;;;;;0.80;0.80;;;;;;;13.79;100.00;98210.50;5090677;28;20217;-75
2023/03/11 00:20:35;;;;;;;0.80;0.80;;;;;;;13.71;100.00;98202.03;5091068;28;20669;-75
2023/03/11 00:23:04;;;;;;;0.70;0.70;;;;;;;13.53;100.00;98166.06;5090859;28;20194;-75
2023/03/11 00:25:33;;;;;;;0.60;0.60;;;;;;;13.73;100.00;98176.81;5091006;28;20213;-75
2023/03/11 00:28:00;;;;;;;0.70;0.70;;;;;;;13.77;100.00;98181.00;5090373;28;20190;-76
2023/03/11 00:30:28;;;;;;;0.80;0.80;;;;;;;13.82;100.00;98168.72;5090666;28;20555;-75
2023/03/11 00:32:58;;;;;;;0.60;0.60;;;;;;;13.95;100.00;98175.28;5090721;28;20214;-75
2023/03/11 00:35:28;;;;;;;0.68;0.68;;;;;;;13.97;100.00;98162.22;5090869;28;20607;-74
2023/03/11 00:37:57;;;;;;;0.70;0.70;;;;;;;13.94;100.00;98139.72;5091012;28;20198;-74
2023/03/11 00:40:26;;;;;;;0.60;0.60;;;;;;;14.16;100.00;98160.78;5055371;28;20198;-74
2023/03/11 00:42:54;;;;;;;0.52;0.52;;;;;;;14.21;100.00;98164.94;5090900;28;20564;-74
2023/03/11 00:45:22;;;;;;;0.65;0.65;;;;;;;14.23;100.00;98168.34;5094943;28;20198;-75
2023/03/11 00:47:49;;;;;;;0.70;0.70;;;;;;;14.35;100.00;98168.03;5094050;28;20205;-75
2023/03/11 00:50:17;;;;;;;0.60;0.60;;;;;;;14.32;100.00;98146.38;5094596;28;20210;-75
2023/03/11 00:52:45;;;;;;;0.70;0.70;;;;;;;14.44;100.00;98171.25;5094566;28;20566;-74
2023/03/11 00:55:14;;;;;;;0.70;0.70;;;;;;;14.50;100.00;98174.50;5094391;28;20205;-74
2023/03/11 00:57:41;;;;;;;0.70;0.70;;;;;;;14.48;100.00;98178.94;5093916;28;20229;-74
2023/03/11 01:00:13;;;;;;;0.68;0.68;;;;;;;14.65;100.00;98167.97;5094791;28;20198;-74
2023/03/11 01:02:40;;;;;;;0.60;0.60;;;;;;;14.46;100.00;98188.53;5042492;28;20194;-74
2023/03/11 01:05:08;;;;;;;0.52;0.52;;;;;;;14.51;100.00;98185.81;5094081;28;20202;-74
2023/03/11 01:07:36;;;;;;;0.60;0.60;;;;;;;14.38;100.00;98187.91;5093655;28;20190;-74
2023/03/11 01:10:04;;;;;;;0.60;0.60;;;;;;;14.25;100.00;98161.34;5094254;28;20210;-74
2023/03/11 01:12:31;;;;;;;0.60;0.60;;;;;;;14.21;100.00;98159.75;5094055;28;20205;-75
2023/03/11 01:14:58;;;;;;;0.80;0.80;;;;;;;14.18;100.00;98169.41;5094178;28;20229;-74
2023/03/11 01:17:26;;;;;;;0.52;0.52;;;;;;;14.22;100.00;98197.09;5093685;28;20202;-74
2023/03/11 01:19:53;;;;;;;0.60;0.60;;;;;;;14.19;100.00;98202.38;5093869;28;20297;-74
2023/03/11 01:22:19;;;;;;;0.60;0.60;;;;;;;14.27;100.00;98200.38;5093963;28;20202;-74
2023/03/11 01:24:46;;;;;;;1.23;0.75;;;;;;;14.22;100.00;98181.44;5041265;28;20194;-74
2023/03/11 01:27:13;;;;;;;0.70;0.70;;;;;;;14.25;100.00;98171.78;5041569;28;20194;-74
2023/03/11 01:29:40;;;;;;;0.70;0.70;;;;;;;14.38;100.00;98161.84;5093695;28;20665;-74
2023/03/11 01:32:07;;;;;;;0.60;0.60;;;;;;;14.36;100.00;98156.69;5093825;28;20567;-74
2023/03/11 01:34:35;;;;;;;0.60;0.60;;;;;;;14.49;100.00;98153.69;5092936;28;20225;-74
2023/03/11 01:37:03;;;;;;;0.70;0.70;;;;;;;14.44;100.00;98139.97;5058653;28;20202;-75
2023/03/11 01:39:29;;;;;;;0.60;0.60;;;;;;;14.15;100.00;98120.84;5093392;28;20233;-74
2023/03/11 01:41:56;;;;;;;0.60;0.60;;;;;;;14.03;100.00;98097.75;5041506;28;20205;-75
2023/03/11 01:44:23;;;;;;;0.70;0.70;;;;;;;14.00;100.00;98121.28;5056659;28;20202;-75
2023/03/11 01:47:29;;;;;;;0.70;0.70;;;;;;;14.01;100.00;98124.75;5093000;28;20217;-75
2023/03/11 01:49:57;;;;;;;0.70;0.70;;;;;;;13.84;100.00;98112.25;4991675;28;20228;-75
2023/03/11 01:52:25;;;;;;;0.70;0.70;;;;;;;13.74;100.00;98116.84;4991917;28;20712;-75
2023/03/11 01:54:51;;;;;;;0.68;0.68;;;;;;;13.65;100.00;98111.94;4990616;28;20768;-74
2023/03/11 01:57:18;;;;;;;0.70;0.70;;;;;;;12.96;100.00;97989.81;4991438;28;20229;-75
2023/03/11 01:59:50;;;;;;;0.70;0.70;;;;;;;13.70;100.00;98096.16;4991518;28;20213;-75
2023/03/11 02:02:20;;;;;;;0.60;0.60;;;;;;;13.67;100.00;98088.44;4959063;28;20562;-75
2023/03/11 02:04:48;;;;;;;0.60;0.60;;;;;;;13.65;100.00;98083.28;4987634;28;20205;-75
2023/03/11 02:07:16;;;;;;;0.70;0.70;;;;;;;13.69;100.00;98074.50;4991647;28;20316;-75
2023/03/11 02:09:44;;;;;;;0.60;0.60;;;;;;;13.39;100.00;98034.56;4990771;28;21751;-73
2023/03/11 02:12:13;;;;;;;0.80;0.80;;;;;;;13.65;100.00;98065.06;4991335;28;20691;-74
2023/03/11 02:14:43;;;;;;;0.50;0.50;;;;;;;13.63;100.00;98045.16;4991149;28;20217;-74
2023/03/11 02:17:10;;;;;;;0.60;0.60;;;;;;;13.83;100.00;98074.06;4991219;28;20209;-74
2023/03/11 02:19:51;;;;;;;0.60;0.60;;;;;;;13.84;100.00;98066.19;4991066;28;20635;-74
2023/03/11 02:22:21;;;;;;;0.75;0.75;;;;;;;13.92;100.00;98089.41;4991424;28;20233;-74
2023/03/11 02:24:54;;;;;;;0.55;0.55;;;;;;;13.97;100.00;98092.75;4986909;28;20320;-74
2023/03/11 02:27:23;;;;;;;4.32;1.27;;;;;;;13.90;100.00;98081.66;5044963;28;20209;-75
2023/03/11 02:29:52;;;;;;;0.80;0.80;;;;;;;13.96;100.00;98087.56;5072231;28;20213;-74
2023/03/11 02:32:20;;;;;;;0.60;0.60;;;;;;;14.07;100.00;98078.53;5072590;28;20210;-74
2023/03/11 02:34:47;;;;;;;0.70;0.70;;;;;;;14.11;100.00;98074.06;5072133;28;20736;-75
2023/03/11 02:37:16;;;;;;;0.60;0.60;;;;;;;14.30;100.00;98075.19;5072468;28;20696;-74
2023/03/11 02:39:45;;;;;;;0.63;0.63;;;;;;;14.32;100.00;98066.41;5072501;28;20269;-74
2023/03/11 02:42:15;;;;;;;0.60;0.60;;;;;;;14.27;100.00;98076.13;5071937;28;20656;-74
2023/03/11 02:44:46;;;;;;;0.52;0.52;;;;;;;14.20;100.00;98074.63;5072031;28;20207;-74
2023/03/11 02:47:14;;;;;;;0.60;0.60;;;;;;;13.88;100.00;98079.97;5071839;28;20214;-74
2023/03/11 02:49:41;;;;;;;0.70;0.70;;;;;;;13.69;100.00;98086.66;5071970;28;20203;-75
2023/03/11 02:52:08;;;;;;;0.60;0.60;;;;;;;13.72;100.00;98091.75;5071929;28;20203;-73
2023/03/11 02:54:35;;;;;;;0.70;0.70;;;;;;;13.75;100.00;98091.66;5071897;28;20221;-74
2023/03/11 02:57:01;;;;;;;0.70;0.70;;;;;;;13.70;100.00;98096.16;5073837;28;20199;-74
2023/03/11 02:59:28;;;;;;;0.57;0.57;;;;;;;13.66;100.00;98097.16;5092191;28;20213;-74
2023/03/11 03:01:56;;;;;;;0.70;0.70;;;;;;;13.63;100.00;98097.22;5091650;28;20198;-74
2023/03/11 03:04:23;;;;;;;0.65;0.65;;;;;;;13.46;100.00;98083.84;5092058;28;20688;-74
2023/03/11 03:06:50;;;;;;;0.80;0.80;;;;;;;13.59;100.00;98106.06;5091885;28;20616;-73
2023/03/11 03:09:17;;;;;;;0.60;0.60;;;;;;;13.62;100.00;98105.97;5088320;28;20190;-76
2023/03/11 03:11:43;;;;;;;0.60;0.60;;;;;;;13.58;100.00;98093.91;5092344;28;20190;-74
2023/03/11 03:14:10;;;;;;;0.93;0.93;;;;;;;13.65;100.00;98100.66;5091212;28;20221;-75
2023/03/11 03:16:37;;;;;;;0.70;0.70;;;;;;;13.67;100.00;98107.50;5091576;28;20210;-73
2023/03/11 03:19:05;;;;;;;0.60;0.60;;;;;;;13.87;100.00;98104.34;5091427;28;20190;-75
2023/03/11 03:21:32;;;;;;;0.60;0.60;;;;;;;13.65;100.00;98080.69;5091763;28;20198;-74
2023/03/11 03:23:59;;;;;;;0.60;0.60;;;;;;;13.90;100.00;98104.25;5091321;28;20218;-74
2023/03/11 03:26:25;;;;;;;0.50;0.50;;;;;;;13.96;100.00;98097.97;5091363;28;20204;-74
2023/03/11 03:28:52;;;;;;;0.60;0.60;;;;;;;13.98;100.00;98112.69;5091539;28;20265;-74
2023/03/11 03:31:19;;;;;;;0.60;0.60;;;;;;;14.02;100.00;98114.28;5091359;28;20194;-75
2023/03/11 03:33:46;;;;;;;0.55;0.55;;;;;;;14.00;100.00;98092.63;5091216;28;20218;-74
2023/03/11 03:36:15;;;;;;;0.70;0.70;;;;;;;13.98;100.00;98094.44;5039649;28;20202;-74
2023/03/11 03:38:42;;;;;;;0.60;0.60;;;;;;;14.07;100.00;98111.53;5091438;28;20194;-74
2023/03/11 03:41:09;;;;;;;0.80;0.80;;;;;;;14.10;100.00;98114.91;5091305;28;20194;-74
2023/03/11 03:43:36;;;;;;;0.60;0.60;;;;;;;14.16;100.00;98108.66;5090736;28;20201;-74
2023/03/11 03:46:05;;;;;;;0.82;0.82;;;;;;;14.25;100.00;98100.53;5090898;28;20645;-75
2023/03/11 03:48:32;;;;;;;0.60;0.60;;;;;;;14.17;100.00;98110.34;5090839;28;20198;-74
2023/03/11 03:51:03;;;;;;;0.93;0.93;;;;;;;14.17;100.00;98090.34;5091386;28;20193;-75
2023/03/11 03:53:33;;;;;;;1.48;1.42;;;;;;;14.14;100.00;98085.25;5090954;28;20205;-74
2023/03/11 03:56:03;;;;;;;0.63;0.63;;;;;;;14.22;100.00;98098.03;5091123;28;20205;-73
2023/03/11 03:58:29;;;;;;;0.70;0.70;;;;;;;14.18;100.00;98094.69;5091090;28;20233;-74
2023/03/11 04:00:56;;;;;;;0.60;0.60;;;;;;;14.06;100.00;98102.00;5090817;28;20213;-73
2023/03/11 04:03:23;;;;;;;0.60;0.60;;;;;;;14.04;100.00;98102.06;5091143;28;20290;-74
2023/03/11 04:05:50;;;;;;;0.60;0.60;;;;;;;13.83;100.00;98071.47;5090809;28;20194;-74
2023/03/11 04:08:17;;;;;;;0.70;0.70;;;;;;;13.98;100.00;98104.00;5090715;28;20217;-74
2023/03/11 04:10:57;;;;;;;0.60;0.60;;;;;;;13.98;100.00;98094.44;5055249;28;20665;-75
2023/03/11 04:13:23;;;;;;;0.68;0.68;;;;;;;13.74;100.00;98079.53;5090454;28;20217;-74
2023/03/11 04:15:50;;;;;;;0.70;0.70;;;;;;;13.79;100.00;98088.06;5091043;28;20222;-74
2023/03/11 04:18:17;;;;;;;0.60;0.60;;;;;;;13.70;100.00;98070.09;5089259;28;20571;-74
2023/03/11 04:20:44;;;;;;;0.60;0.60;;;;;;;13.82;100.00;98083.63;5090477;28;20205;-74
2023/03/11 04:23:11;;;;;;;0.60;0.60;;;;;;;13.73;100.00;98080.47;5038604;28;20205;-74
2023/03/11 04:25:38;;;;;;;0.60;0.60;;;;;;;13.67;100.00;98093.63;5090744;28;20241;-74
2023/03/11 04:28:07;;;;;;;0.63;0.63;;;;;;;13.73;100.00;98088.28;5087229;28;20199;-75
2023/03/11 04:30:33;;;;;;;0.70;0.70;;;;;;;13.57;100.00;98066.16;5070957;28;20198;-75
2023/03/11 04:33:00;;;;;;;0.60;0.60;;;;;;;13.77;100.00;98079.44;5074030;28;20190;-75
2023/03/11 04:35:27;;;;;;;0.68;0.68;;;;;;;13.78;100.00;98107.19;5055258;28;20214;-75
2023/03/11 04:37:54;;;;;;;0.60;0.60;;;;;;;13.59;100.00;98098.22;5088769;28;20207;-75
2023/03/11 04:40:21;;;;;;;0.70;0.70;;;;;;;13.56;100.00;98106.97;5086254;28;20202;-74
2023/03/11 04:42:48;;;;;;;0.60;0.60;;;;;;;13.43;100.00;98107.38;5048744;28;20209;-74
2023/03/11 04:45:17;;;;;;;0.70;0.70;;;;;;;13.43;100.00;98099.56;5082072;28;20214;-75
2023/03/11 04:47:47;;;;;;;0.65;0.65;;;;;;;13.16;100.00;98065.59;5085992;28;20194;-75
2023/03/11 04:50:13;;;;;;;0.60;0.60;;;;;;;13.28;100.00;98088.69;5081826;28;20665;-73
2023/03/11 04:52:40;;;;;;;0.60;0.60;;;;;;;13.06;100.00;98063.25;5089945;28;20217;-76
2023/03/11 04:55:08;;;;;;;0.60;0.60;;;;;;;13.09;100.00;98084.84;5083621;28;20218;-74
2023/03/11 04:57:35;;;;;;;0.60;0.60;;;;;;;13.02;100.00;98088.50;5027363;28;20222;-75
2023/03/11 05:00:04;;;;;;;0.60;0.60;;;;;;;13.02;100.00;98087.66;5084132;28;21852;-74
2023/03/11 05:02:33;;;;;;;0.80;0.80;;;;;;;12.89;100.00;98072.38;5084428;28;20230;-75
2023/03/11 05:05:00;;;;;;;0.60;0.60;;;;;;;12.76;100.00;98044.13;5044520;28;20195;-75
2023/03/11 05:07:27;;;;;;;0.63;0.63;;;;;;;12.84;100.00;98057.78;5047278;28;20191;-75
2023/03/11 05:09:53;;;;;;;0.80;0.80;;;;;;;12.94;100.00;98051.44;5086612;28;20191;-75
2023/03/11 05:12:20;;;;;;;1.05;1.05;;;;;;;12.89;100.00;98040.31;5080789;28;20668;-75
2023/03/11 05:14:47;;;;;;;0.60;0.60;;;;;;;12.91;100.00;98056.75;5088460;28;20595;-75
2023/03/11 05:17:14;;;;;;;0.70;0.70;;;;;;;12.91;100.00;98064.53;5090371;28;20213;-75
2023/03/11 05:19:42;;;;;;;0.70;0.70;;;;;;;13.08;100.00;98072.75;5082893;28;20200;-75
2023/03/11 05:22:09;;;;;;;0.70;0.70;;;;;;;13.15;100.00;98079.50;5059284;28;20199;-75
2023/03/11 05:24:36;;;;;;;0.60;0.60;;;;;;;12.68;100.00;98004.47;5049486;28;20257;-75
2023/03/11 05:27:03;;;;;;;0.70;0.70;;;;;;;13.18;100.00;98074.22;5078449;28;20225;-73
2023/03/11 05:29:31;;;;;;;0.70;0.70;;;;;;;13.12;100.00;98065.72;5086036;28;20222;-73
2023/03/11 05:31:58;;;;;;;0.60;0.60;;;;;;;13.25;100.00;98083.56;5085489;28;20202;-75
2023/03/11 05:34:25;;;;;;;0.70;0.70;;;;;;;12.83;100.00;97996.28;5089827;28;20613;-74
2023/03/11 05:36:53;;;;;;;0.60;0.60;;;;;;;13.44;100.00;98081.31;5085679;28;20226;-75
2023/03/11 05:39:20;;;;;;;0.60;0.60;;;;;;;13.55;100.00;98084.47;5088266;28;20198;-75
2023/03/11 05:41:47;;;;;;;0.80;0.80;;;;;;;13.63;100.00;98086.81;5084297;28;20205;-75
2023/03/11 05:44:14;;;;;;;0.70;0.70;;;;;;;13.70;100.00;98093.53;5091786;28;20201;-74
2023/03/11 05:46:41;;;;;;;0.70;0.70;;;;;;;13.76;100.00;98093.38;5093634;28;20673;-75
2023/03/11 05:49:07;;;;;;;0.60;0.60;;;;;;;13.39;100.00;98029.38;5093617;28;20668;-74
2023/03/11 05:51:35;;;;;;;0.60;0.60;;;;;;;13.75;100.00;98107.28;5093476;28;20615;-73
2023/03/11 05:54:03;;;;;;;0.73;0.73;;;;;;;13.88;100.00;98111.22;5093105;28;20194;-74
2023/03/11 05:56:30;;;;;;;0.60;0.60;;;;;;;13.82;100.00;98099.25;5093302;28;20224;-74
2023/03/11 05:58:58;;;;;;;0.70;0.70;;;;;;;14.03;100.00;98116.00;5093375;28;20225;-72
2023/03/11 06:01:25;;;;;;;0.70;0.70;;;;;;;14.04;100.00;98122.91;5093119;28;20230;-74
2023/03/11 06:03:51;;;;;;;0.60;0.60;;;;;;;14.15;100.00;98133.00;5092841;28;20194;-74
2023/03/11 06:06:19;;;;;;;0.70;0.70;;;;;;;14.22;100.00;98130.19;5093465;28;20627;-74
2023/03/11 06:08:48;;;;;;;0.70;0.70;;;;;;;14.27;100.00;98130.88;5084805;28;20293;-74
2023/03/11 06:11:17;;;;;;;0.50;0.50;;;;;;;14.22;100.00;98138.00;5036260;28;20206;-75
2023/03/11 06:13:43;;;;;;;0.57;0.57;;;;;;;14.11;100.00;98147.88;5086463;28;20205;-73
2023/03/11 06:16:10;;;;;;;0.70;0.70;;;;;;;14.28;100.00;98153.44;5084811;28;20226;-74
2023/03/11 06:18:37;;;;;;;0.57;0.57;;;;;;;14.24;100.00;98143.13;5081803;28;20206;-74
2023/03/11 06:21:04;;;;;;;0.70;0.70;;;;;;;14.33;100.00;98148.94;5087165;28;20218;-76
2023/03/11 06:23:31;;;;;;;0.60;0.60;;;;;;;14.25;100.00;98161.34;5053081;28;20198;-77
2023/03/11 06:25:59;;;;;;;4.20;1.05;;;;;;;14.27;100.00;98153.47;5079374;28;20596;-76
2023/03/11 06:28:28;;;;;;;0.70;0.70;;;;;;;14.07;100.00;98148.88;5089817;28;20206;-77
2023/03/11 06:30:56;;;;;;;0.80;0.80;;;;;;;13.93;100.00;98111.09;5091490;28;20668;-77
2023/03/11 06:33:23;;;;;;;0.50;0.50;;;;;;;14.08;100.00;98150.59;5089968;28;20237;-75
2023/03/11 06:35:57;;;;;;;0.60;0.60;;;;;;;14.12;100.00;98153.97;5091677;28;20249;-78
2023/03/11 06:38:24;;;;;;;0.60;0.60;;;;;;;13.86;100.00;98152.13;5089210;28;20245;-77
2023/03/11 06:40:51;;;;;;;0.60;0.60;;;;;;;14.06;100.00;98157.59;5055812;28;20198;-78
2023/03/11 06:43:18;;;;;;;0.65;0.65;;;;;;;14.08;100.00;98167.97;5083091;28;20230;-77
2023/03/11 06:45:46;;;;;;;0.60;0.60;;;;;;;14.02;100.00;98168.16;5090469;28;20213;-74
2023/03/11 06:48:13;;;;;;;0.60;0.60;;;;;;;14.02;100.00;98169.00;5091730;28;20206;-76
2023/03/11 06:50:40;;;;;;;0.85;0.85;;;;;;;14.04;100.00;98176.78;5087197;28;20195;-73
2023/03/11 06:53:07;;;;;;;0.65;0.65;;;;;;;13.76;100.00;98132.44;5091370;28;20591;-74
2023/03/11 06:55:34;;;;;;;0.60;0.60;;;;;;;14.16;100.00;98171.22;5090180;28;20249;-75
2023/03/11 06:58:01;;;;;;;0.57;0.57;;;;;;;14.33;100.00;98181.97;5055394;28;20226;-75
2023/03/11 07:00:29;;;;;;;0.70;0.70;;;;;;;14.29;100.00;98186.44;5054838;28;20206;-75
2023/03/11 07:02:58;;;;;;;0.70;0.70;;;;;;;14.35;100.00;98178.44;5080421;28;20623;-76
2023/03/11 07:05:25;;;;;;;0.50;0.50;;;;;;;14.26;100.00;98183.06;5089814;28;20202;-76
2023/03/11 07:07:55;;;;;;;0.70;0.70;;;;;;;14.37;100.00;98157.56;5087965;28;20202;-76
2023/03/11 07:10:22;;;;;;;0.80;0.80;;;;;;;14.05;100.00;98150.69;5087374;28;20244;-75
2023/03/11 07:12:48;;;;;;;0.60;0.60;;;;;;;14.39;100.00;98177.47;5089590;28;20274;-74
2023/03/11 07:15:15;;;;;;;0.85;0.85;;;;;;;14.35;100.00;98173.22;5089559;28;20704;-76
2023/03/11 07:17:42;;;;;;;1.17;1.17;;;;;;;14.28;100.00;98166.47;5027639;28;20583;-75
2023/03/11 07:20:12;;;;;;;0.90;0.90;;;;;;;14.60;100.00;98177.69;5090377;28;20595;-74
2023/03/11 07:22:38;;;;;;;0.70;0.70;;;;;;;14.49;100.00;98164.13;5090152;28;20646;-74
2023/03/11 07:25:06;;;;;;;0.60;0.60;;;;;;;14.60;100.00;98154.22;5089277;28;20611;-76
2023/03/11 07:27:33;;;;;;;0.52;0.52;;;;;;;14.64;100.00;98167.09;5087650;28;20206;-74
2023/03/11 07:30:01;;;;;;;0.60;0.60;;;;;;;14.81;100.00;98167.41;5089594;28;20225;-74
2023/03/11 07:32:28;;;;;;;0.70;0.70;;;;;;;14.72;100.00;98152.06;5084864;28;20236;-72
2023/03/11 07:34:55;;;;;;;0.70;0.70;;;;;;;14.82;100.00;98163.03;5052770;28;20198;-77
2023/03/11 07:37:23;;;;;;;18.73;2.67;;;;;;;14.79;100.00;98164.00;5086803;28;20213;-74
2023/03/11 07:39:50;;;;;;;0.68;0.68;;;;;;;14.66;100.00;98167.06;5090301;28;20205;-74
2023/03/11 07:42:16;;;;;;;0.55;0.55;;;;;;;14.67;100.00;98151.34;5089825;28;20210;-76
2023/03/11 07:44:43;;;;;;;0.60;0.60;;;;;;;14.59;100.00;98135.09;5090337;28;20585;-77
2023/03/11 07:47:10;;;;;;;0.70;0.70;;;;;;;14.82;100.00;98145.66;5089620;28;20206;-75
2023/03/11 07:49:37;;;;;;;0.50;0.50;;;;;;;14.68;100.00;98144.38;5054341;28;20202;-73
2023/03/11 07:52:05;;;;;;;0.70;0.70;;;;;;;14.75;100.00;98136.31;5086995;28;20310;-74
2023/03/11 07:54:33;;;;;;;0.70;0.70;;;;;;;14.95;100.00;98138.25;5085543;28;20217;-74
2023/03/11 07:57:00;;;;;;;0.80;0.80;;;;;;;14.92;100.00;98140.09;5081704;28;20230;-74
2023/03/11 07:59:27;;;;;;;0.70;0.70;;;;;;;15.17;100.00;98134.00;5088605;28;20202;-74
2023/03/11 08:01:53;;;;;;;0.57;0.57;;;;;;;15.23;100.00;98133.78;5088139;28;20202;-75
2023/03/11 08:04:20;;;;;;;0.65;0.65;;;;;;;15.23;100.00;98143.41;5089039;28;20209;-74
2023/03/11 08:06:47;;;;;;;0.60;0.60;;;;;;;15.32;100.00;98141.31;5087440;28;20202;-74
2023/03/11 08:09:14;;;;;;;0.90;0.90;;;;;;;15.62;100.00;98130.72;5089677;28;20212;-75
2023/03/11 08:11:42;;;;;;;0.60;0.60;;;;;;;15.90;100.00;98130.53;5086442;28;20226;-74
2023/03/11 08:14:10;;;;;;;0.50;0.50;;;;;;;15.64;100.00;98124.50;5033244;28;20206;-73
2023/03/11 08:16:39;;;;;;;0.60;0.60;;;;;;;15.45;100.00;98118.22;5079989;28;20625;-75
2023/03/11 08:19:06;;;;;;;0.60;0.60;;;;;;;15.74;100.00;98122.41;5086341;28;20218;-74
2023/03/11 08:21:32;;;;;;;0.60;0.60;;;;;;;15.66;100.00;98119.25;5036085;28;20205;-75
2023/03/11 08:24:01;;;;;;;0.60;0.60;;;;;;;15.52;100.00;98113.69;5089443;28;20213;-75
2023/03/11 08:26:28;;;;;;;0.60;0.60;;;;;;;15.42;100.00;98114.84;5079340;28;20205;-74
2023/03/11 08:28:58;;;;;;;0.60;0.60;;;;;;;15.50;100.00;98078.91;5042594;28;20214;-76
2023/03/11 08:31:27;;;;;;;0.60;0.60;;;;;;;15.60;100.00;98101.16;5086562;28;20286;-74
2023/03/11 08:33:56;;;;;;;0.90;0.90;;;;;;;15.62;100.00;98091.53;5082195;28;20198;-74
2023/03/11 08:36:23;;;;;;;0.60;0.60;;;;;;;15.51;100.00;98091.06;5077677;28;20224;-73
2023/03/11 08:38:49;;;;;;;0.60;0.60;;;;;;;15.63;100.00;98093.22;5088229;28;20203;-74
2023/03/11 08:41:17;;;;;;;0.70;0.70;;;;;;;15.63;100.00;98085.38;5088056;28;20194;-75
2023/03/11 08:43:44;;;;;;;0.60;0.60;;;;;;;15.65;100.00;98073.13;5088085;28;20206;-75
2023/03/11 08:46:16;;;;;;;0.60;0.60;;;;;;;15.83;100.00;98067.22;5088478;28;20195;-73
2023/03/11 08:48:42;;;;;;;0.63;0.63;;;;;;;15.85;100.00;98040.09;5081082;28;20202;-74
2023/03/11 08:51:11;;;;;;;0.60;0.60;;;;;;;16.02;100.00;98077.78;5088410;28;20202;-76
2023/03/11 08:53:38;;;;;;;0.63;0.63;;;;;;;15.91;100.00;98079.97;5088942;28;20198;-73
2023/03/11 08:56:05;;;;;;;0.60;0.60;;;;;;;15.95;100.00;98071.94;5089631;28;20221;-72
2023/03/11 08:58:32;;;;;;;0.50;0.50;;;;;;;15.96;100.00;98065.81;5083145;28;20241;-74
2023/03/11 09:00:59;;;;;;;0.50;0.50;;;;;;;16.03;100.00;98069.88;5090169;28;20589;-77
2023/03/11 09:03:28;;;;;;;0.60;0.60;;;;;;;15.73;100.00;98019.66;5082475;28;20203;-76
2023/03/11 09:05:59;;;;;;;0.63;0.63;;;;;;;16.04;100.00;98060.28;5088280;28;20206;-73
2023/03/11 09:08:26;;;;;;;0.60;0.60;;;;;;;15.70;100.00;98047.66;5092195;28;20201;-72
2023/03/11 09:10:52;;;;;;;0.63;0.63;;;;;;;15.72;100.00;98049.31;5093684;28;20206;-75
2023/03/11 09:13:19;;;;;;;0.60;0.60;;;;;;;15.80;100.00;98068.16;5093901;28;20194;-75
2023/03/11 09:15:47;;;;;;;0.60;0.60;;;;;;;15.78;100.00;98079.59;5077792;28;20794;-75
2023/03/11 09:18:15;;;;;;;0.70;0.70;;;;;;;15.94;100.00;98061.56;5081818;28;20206;-76
2023/03/11 09:20:44;;;;;;;1.05;1.05;;;;;;;15.39;100.00;97946.94;5093559;28;20207;-75
2023/03/11 09:23:13;;;;;;;0.60;0.60;;;;;;;15.90;100.00;98037.31;5093731;28;20210;-76
2023/03/11 09:25:40;;;;;;;0.50;0.50;;;;;;;16.19;100.00;98080.59;5093609;28;20255;-75
2023/03/11 09:28:07;;;;;;;0.70;0.70;;;;;;;15.99;100.00;98047.38;5088594;28;20206;-75
2023/03/11 09:30:34;;;;;;;0.60;0.60;;;;;;;16.06;100.00;98066.28;5085406;28;20245;-76
2023/03/11 09:33:01;;;;;;;0.63;0.63;;;;;;;16.15;100.00;98064.19;5073024;28;20226;-75
2023/03/11 09:35:28;;;;;;;0.60;0.60;;;;;;;16.21;100.00;98056.09;5091306;28;20197;-76
2023/03/11 09:37:56;;;;;;;0.70;0.70;;;;;;;16.20;100.00;98074.44;5090630;28;20198;-75
2023/03/11 09:40:26;;;;;;;0.60;0.60;;;;;;;16.34;100.00;98057.28;5093148;28;20686;-74
2023/03/11 09:43:03;;;;;;;0.57;0.57;;;;;;;16.60;100.00;98066.72;5090873;28;20210;-74
2023/03/11 09:45:34;;;;;;;0.70;0.70;;;;;;;16.80;100.00;98043.19;5093215;28;20205;-75
2023/03/11 09:48:09;;;;;;;0.50;0.50;;;;;;;17.04;100.00;98067.47;5093182;28;20202;-76
2023/03/11 09:50:43;;;;;;;0.60;0.60;;;;;;;17.08;98.89;98073.44;5092910;28;20581;-75
2023/03/11 09:53:22;;;;;;;0.60;0.60;;;;;;;16.83;95.18;98065.78;5093289;28;20607;-76
2023/03/11 09:55:52;;;;;;;0.60;0.60;;;;;;;16.87;92.54;98080.44;5086913;28;20222;-73
2023/03/11 09:58:26;;;;;;;0.60;0.60;;;;;;;17.09;91.08;98075.97;5091089;28;20225;-76
2023/03/11 10:00:53;;;;;;;0.60;0.60;;;;;;;17.07;90.16;98075.19;5086080;28;20210;-77
2023/03/11 10:03:30;;;;;;;0.65;0.65;;;;;;;16.99;91.21;98069.41;5089026;28;20596;-75
2023/03/11 10:06:05;;;;;;;0.70;0.70;;;;;;;17.29;90.08;98077.72;5092009;28;20220;-77
2023/03/11 10:08:42;;;;;;;0.60;0.60;;;;;;;17.29;89.82;98072.50;5089732;28;20201;-74
2023/03/11 10:11:19;;;;;;;0.60;0.60;;;;;;;17.61;92.82;98066.69;5092290;28;20225;-76
2023/03/11 10:13:55;;;;;;;0.60;0.60;;;;;;;17.43;90.62;98069.25;5088993;28;20198;-74
2023/03/11 10:16:29;;;;;;;0.60;0.60;;;;;;;17.32;89.86;98067.97;5084345;28;20230;-76
2023/03/11 10:19:02;;;;;;;0.60;0.60;;;;;;;17.25;90.95;98056.06;5091840;28;20822;-74
2023/03/11 10:21:41;;;;;;;0.60;0.60;;;;;;;17.34;91.50;98060.88;5091523;28;20198;-72
2023/03/11 10:24:36;;;;;;;0.60;0.60;;;;;;;17.40;91.83;98054.53;5092322;28;20617;-73
2023/03/11 10:27:09;;;;;;;0.60;0.60;;;;;;;16.87;90.19;98001.91;5092613;28;20217;-74
2023/03/11 10:29:45;;;;;;;0.60;0.60;;;;;;;17.20;89.20;98052.78;5092023;28;20307;-76
2023/03/11 10:32:17;;;;;;;0.80;0.80;;;;;;;17.15;89.75;98049.53;5091827;28;20205;-77
2023/03/11 10:34:49;;;;;;;0.50;0.50;;;;;;;17.34;89.96;98031.19;5088391;28;20589;-76
2023/03/11 10:37:20;;;;;;;0.70;0.70;;;;;;;17.71;87.31;98049.63;5091369;28;20312;-76
2023/03/11 10:39:48;;;;;;;1.02;1.02;;;;;;;17.74;84.44;98027.66;5091603;28;20624;-73
2023/03/11 10:42:20;;;;;;;1.20;1.20;;;;;;;17.79;82.65;98005.56;5086866;28;20559;-76
2023/03/11 10:44:46;;;;;;;0.68;0.68;;;;;;;18.09;81.60;98034.69;5091705;28;20206;-73
2023/03/11 10:47:18;;;;;;;0.50;0.50;;;;;;;17.96;79.60;98032.72;5088752;28;20230;-73
2023/03/11 10:49:44;;;;;;;0.60;0.60;;;;;;;17.98;81.56;98026.47;5086201;28;20295;-73
2023/03/11 10:52:12;;;;;;;0.80;0.80;;;;;;;17.99;79.31;98025.56;5055442;28;20201;-76
2023/03/11 10:54:44;;;;;;;0.60;0.60;;;;;;;17.71;77.99;97970.13;5056047;28;20206;-74
2023/03/11 10:57:24;;;;;;;0.60;0.60;;;;;;;18.08;74.28;98038.25;5090680;28;20253;-74
2023/03/11 10:59:52;;;;;;;0.70;0.70;;;;;;;18.20;73.52;98037.66;5091566;28;20300;-75
2023/03/11 11:02:24;;;;;;;0.60;0.60;;;;;;;18.38;73.53;98017.53;5084224;28;20680;-76
2023/03/11 11:05:26;;;;;;;0.70;0.70;;;;;;;18.21;73.45;98007.03;5091542;28;20569;-75
2023/03/11 11:08:03;;;;;;;0.60;0.60;;;;;;;17.97;74.76;98019.56;5091221;28;20209;-75
2023/03/11 11:10:30;;;;;;;0.65;0.65;;;;;;;17.66;75.56;98009.66;5091589;28;20198;-76
2023/03/11 11:13:01;;;;;;;0.65;0.65;;;;;;;18.20;76.06;98019.28;5083905;28;20286;-76
2023/03/11 11:15:30;;;;;;;0.70;0.70;;;;;;;18.29;73.71;98010.13;5087139;28;20195;-74
2023/03/11 11:17:59;;;;;;;0.60;0.60;;;;;;;18.42;73.13;97990.22;5090249;28;20248;-75
2023/03/11 11:20:28;;;;;;;0.60;0.60;;;;;;;18.80;72.48;98022.44;5055600;28;20210;-75
2023/03/11 11:22:57;;;;;;;0.60;0.60;;;;;;;18.59;71.87;98020.91;5082761;28;20197;-74
2023/03/11 11:25:30;;;;;;;0.60;0.60;;;;;;;18.54;70.37;98008.03;5091114;28;20206;-74
2023/03/11 11:28:01;;;;;;;0.50;0.50;;;;;;;18.37;71.27;97986.16;5089881;28;20206;-73
2023/03/11 11:30:29;;;;;;;0.88;0.88;;;;;;;18.46;65.40;98018.00;5090727;28;20194;-77
2023/03/11 11:32:55;;;;;;;0.60;0.60;;;;;;;18.30;62.38;98011.81;5091100;28;20224;-75